createdAt,value
2023-01-18T00:01:07.567Z,50.88
2023-01-18T00:03:15.162Z,50.73
2023-01-18T00:05:16.882Z,50.85
2023-01-18T00:07:18.500Z,50.53
2023-01-18T00:09:20.353Z,50.73
2023-01-18T00:11:22.050Z,50.85
2023-01-18T00:13:23.530Z,50.70
2023-01-18T00:15:25.327Z,50.44
2023-01-18T00:17:26.916Z,50.41
2023-01-18T00:19:28.505Z,50.83
2023-01-18T00:21:30.175Z,50.52
2023-01-18T00:23:31.976Z,50.58
2023-01-18T00:25:35.470Z,50.62
2023-01-18T00:27:38.547Z,50.47
2023-01-18T00:29:40.092Z,50.63
2023-01-18T00:31:41.959Z,50.68
2023-01-18T00:33:45.772Z,50.83
2023-01-18T00:36:01.408Z,50.94
2023-01-18T00:38:02.938Z,50.88
2023-01-18T00:40:09.911Z,50.73
2023-01-18T00:42:30.191Z,50.83
2023-01-18T00:44:31.934Z,50.68
2023-01-18T00:46:33.726Z,50.54
2023-01-18T00:48:36.061Z,51.25
2023-01-18T00:50:38.292Z,50.88
2023-01-18T00:52:46.466Z,50.41
2023-01-18T00:54:48.446Z,50.97
2023-01-18T00:56:50.065Z,50.78
2023-01-18T00:58:54.033Z,50.87
2023-01-18T01:00:55.774Z,51.06
2023-01-18T01:03:03.765Z,50.74
2023-01-18T01:05:45.904Z,50.70
2023-01-18T01:07:49.255Z,50.95
2023-01-18T01:09:51.129Z,50.88
2023-01-18T01:12:12.465Z,50.99
2023-01-18T01:14:32.741Z,50.97
2023-01-18T01:16:53.240Z,50.79
2023-01-18T01:19:14.460Z,51.08
2023-01-18T01:21:34.813Z,51.14
2023-01-18T01:23:56.864Z,50.91
2023-01-18T01:26:13.798Z,51.32
2023-01-18T01:28:15.393Z,51.38
2023-01-18T01:30:16.914Z,51.26
2023-01-18T01:32:18.547Z,51.26
2023-01-18T01:34:20.286Z,51.26
2023-01-18T01:36:30.347Z,51.51
2023-01-18T01:38:32.062Z,51.03
2023-01-18T01:40:34.324Z,51.12
2023-01-18T01:42:36.006Z,51.27
2023-01-18T01:44:43.760Z,51.59
2023-01-18T01:47:00.689Z,51.22
2023-01-18T01:49:18.967Z,51.33
2023-01-18T01:51:20.653Z,51.15
2023-01-18T01:53:29.609Z,51.39
2023-01-18T01:55:35.345Z,51.23
2023-01-18T01:57:43.410Z,51.22
2023-01-18T01:59:56.656Z,51.48
2023-01-18T02:02:01.606Z,51.44
2023-01-18T02:04:04.119Z,51.39
2023-01-18T02:06:19.791Z,51.44
2023-01-18T02:08:24.576Z,51.49
2023-01-18T02:10:26.861Z,51.14
2023-01-18T02:12:29.830Z,51.58
2023-01-18T02:14:32.129Z,51.46
2023-01-18T02:16:41.002Z,51.16
2023-01-18T02:18:52.605Z,51.38
2023-01-18T02:21:14.113Z,51.79
2023-01-18T02:23:27.845Z,51.75
2023-01-18T02:25:54.977Z,51.81
2023-01-18T02:28:23.444Z,51.60
2023-01-18T02:30:36.309Z,51.86
2023-01-18T02:33:25.853Z,51.78
2023-01-18T02:35:39.994Z,51.72
2023-01-18T02:37:49.467Z,51.43
2023-01-18T02:40:08.688Z,51.29
2023-01-18T02:42:50.291Z,51.34
2023-01-18T02:45:11.263Z,51.91
2023-01-18T02:47:13.008Z,51.62
2023-01-18T02:49:36.068Z,51.85
2023-01-18T02:51:38.274Z,51.97
2023-01-18T02:53:45.847Z,51.90
2023-01-18T02:56:03.727Z,52.04
2023-01-18T02:58:19.233Z,51.53
2023-01-18T03:00:23.515Z,52.05
2023-01-18T03:02:29.304Z,52.24
2023-01-18T03:04:41.194Z,52.19
2023-01-18T03:06:48.627Z,52.03
2023-01-18T03:08:53.512Z,51.75
2023-01-18T03:11:04.761Z,51.81
2023-01-18T03:13:18.237Z,52.37
2023-01-18T03:15:38.644Z,51.84
2023-01-18T03:17:46.923Z,51.79
2023-01-18T03:20:13.003Z,52.13
2023-01-18T03:22:15.290Z,52.08
2023-01-18T03:24:19.595Z,51.94
2023-01-18T03:26:21.934Z,51.93
2023-01-18T03:29:08.320Z,51.82
2023-01-18T03:31:32.692Z,52.34
2023-01-18T03:33:50.867Z,51.68
2023-01-18T03:35:55.555Z,52.05
2023-01-18T03:38:02.234Z,51.79
2023-01-18T03:40:08.770Z,51.87
2023-01-18T03:42:19.587Z,52.10
2023-01-18T03:44:37.382Z,52.42
2023-01-18T03:46:40.549Z,52.34
2023-01-18T03:48:42.119Z,52.27
2023-01-18T03:50:56.216Z,52.58
2023-01-18T03:53:03.582Z,52.06
2023-01-18T03:55:38.502Z,52.35
2023-01-18T03:57:59.260Z,52.49
2023-01-18T04:00:02.659Z,52.57
2023-01-18T04:02:17.128Z,52.34
2023-01-18T04:04:18.581Z,52.49
2023-01-18T04:06:31.236Z,52.41
2023-01-18T04:08:32.929Z,52.01
2023-01-18T04:10:34.517Z,52.32
2023-01-18T04:12:38.039Z,52.36
2023-01-18T04:14:39.552Z,52.16
2023-01-18T04:16:41.140Z,51.84
2023-01-18T04:18:42.809Z,52.38
2023-01-18T04:20:44.307Z,52.30
2023-01-18T04:22:51.785Z,52.59
2023-01-18T04:24:53.334Z,52.74
2023-01-18T04:26:57.226Z,52.19
2023-01-18T04:28:58.849Z,52.71
2023-01-18T04:31:09.878Z,52.25
2023-01-18T04:33:16.407Z,52.46
2023-01-18T04:35:18.021Z,52.65
2023-01-18T04:37:19.553Z,52.63
2023-01-18T04:39:21.878Z,52.47
2023-01-18T04:41:23.958Z,52.30
2023-01-18T04:43:25.518Z,52.31
2023-01-18T04:45:30.029Z,52.10
2023-01-18T04:47:31.530Z,52.37
2023-01-18T04:49:33.115Z,52.48
2023-01-18T04:51:35.126Z,52.48
2023-01-18T04:53:36.653Z,52.69
2023-01-18T04:55:38.454Z,52.46
2023-01-18T04:57:40.175Z,52.42
2023-01-18T04:59:45.992Z,52.38
2023-01-18T05:01:47.667Z,52.29
2023-01-18T05:03:55.127Z,52.22
2023-01-18T05:05:56.694Z,52.31
2023-01-18T05:08:01.210Z,52.36
2023-01-18T05:10:03.801Z,52.75
2023-01-18T05:12:05.596Z,52.82
2023-01-18T05:14:07.302Z,52.68
2023-01-18T05:16:14.574Z,52.63
2023-01-18T05:18:16.176Z,52.51
2023-01-18T05:20:17.833Z,52.54
2023-01-18T05:22:19.424Z,52.88
2023-01-18T05:24:21.159Z,52.79
2023-01-18T05:26:24.053Z,52.86
2023-01-18T05:28:27.458Z,53.04
2023-01-18T05:30:29.357Z,52.59
2023-01-18T05:32:30.995Z,52.49
2023-01-18T05:34:34.839Z,52.58
2023-01-18T05:36:39.789Z,52.45
2023-01-18T05:38:41.413Z,52.57
2023-01-18T05:40:50.029Z,52.78
2023-01-18T05:42:51.674Z,52.49
2023-01-18T05:44:53.325Z,52.75
2023-01-18T05:46:54.918Z,52.57
2023-01-18T05:48:58.249Z,52.89
2023-01-18T05:51:08.800Z,52.76
2023-01-18T05:53:13.973Z,52.61
2023-01-18T05:55:21.549Z,52.94
2023-01-18T05:57:23.319Z,53.08
2023-01-18T05:59:35.338Z,52.67
2023-01-18T06:01:38.009Z,52.73
2023-01-18T06:03:40.842Z,52.91
2023-01-18T06:05:42.593Z,52.57
2023-01-18T06:07:44.399Z,52.69
2023-01-18T06:09:45.999Z,53.01
2023-01-18T06:11:50.026Z,53.06
2023-01-18T06:13:54.422Z,52.58
2023-01-18T06:15:57.991Z,53.09
2023-01-18T06:18:00.071Z,52.67
2023-01-18T06:20:02.158Z,53.02
2023-01-18T06:22:03.735Z,53.11
2023-01-18T06:24:05.562Z,52.83
2023-01-18T06:26:07.256Z,52.62
2023-01-18T06:28:08.805Z,52.85
2023-01-18T06:30:11.299Z,53.10
2023-01-18T06:32:12.900Z,53.07
2023-01-18T06:34:14.431Z,53.22
2023-01-18T06:36:16.068Z,53.32
2023-01-18T06:38:18.992Z,52.76
2023-01-18T06:40:20.726Z,52.90
2023-01-18T06:42:23.373Z,53.06
2023-01-18T06:44:24.965Z,53.46
2023-01-18T06:46:26.506Z,53.06
2023-01-18T06:48:29.697Z,53.23
2023-01-18T06:50:31.548Z,53.35
2023-01-18T06:52:33.170Z,53.19
2023-01-18T06:54:35.946Z,53.09
2023-01-18T06:56:37.621Z,53.42
2023-01-18T06:58:39.227Z,53.12
2023-01-18T07:00:40.780Z,53.46
2023-01-18T07:02:44.295Z,53.24
2023-01-18T07:04:48.553Z,53.22
2023-01-18T07:06:50.110Z,53.20
2023-01-18T07:08:52.089Z,53.54
2023-01-18T07:10:55.205Z,53.46
2023-01-18T07:12:57.361Z,53.24
2023-01-18T07:15:20.872Z,53.77
2023-01-18T07:17:23.439Z,53.33
2023-01-18T07:19:24.923Z,53.36
2023-01-18T07:21:29.859Z,53.44
2023-01-18T07:23:31.659Z,53.60
2023-01-18T07:25:33.391Z,53.64
2023-01-18T07:27:35.160Z,53.50
2023-01-18T07:29:36.708Z,53.88
2023-01-18T07:31:38.793Z,53.60
2023-01-18T07:33:40.437Z,53.54
2023-01-18T07:35:44.289Z,53.45
2023-01-18T07:37:50.364Z,53.74
2023-01-18T07:39:53.765Z,53.68
2023-01-18T07:41:55.572Z,53.41
2023-01-18T07:44:03.740Z,53.79
2023-01-18T07:46:11.381Z,53.65
2023-01-18T07:48:17.003Z,53.24
2023-01-18T07:50:18.908Z,53.85
2023-01-18T07:52:20.556Z,53.54
2023-01-18T07:54:22.184Z,53.53
2023-01-18T07:56:26.199Z,53.65
2023-01-18T07:58:29.303Z,53.89
2023-01-18T08:00:30.966Z,53.51
2023-01-18T08:02:33.957Z,53.67
2023-01-18T08:04:35.554Z,53.85
2023-01-18T08:06:37.465Z,53.50
2023-01-18T08:08:42.302Z,53.82
2023-01-18T08:10:44.912Z,53.36
2023-01-18T08:12:46.724Z,53.82
2023-01-18T08:14:48.597Z,53.50
2023-01-18T08:16:52.582Z,53.85
2023-01-18T08:18:54.390Z,53.43
2023-01-18T08:20:56.389Z,53.26
2023-01-18T08:22:59.952Z,53.81
2023-01-18T08:25:02.175Z,53.53
2023-01-18T08:27:03.916Z,53.49
2023-01-18T08:29:06.317Z,53.73
2023-01-18T08:31:14.977Z,53.83
2023-01-18T08:33:17.000Z,53.57
2023-01-18T08:35:23.696Z,53.51
2023-01-18T08:37:25.656Z,53.69
2023-01-18T08:39:31.433Z,53.33
2023-01-18T08:41:36.238Z,53.54
2023-01-18T08:43:37.893Z,53.31
2023-01-18T08:45:39.491Z,53.41
2023-01-18T08:47:41.455Z,53.48
2023-01-18T08:49:43.062Z,53.53
2023-01-18T08:51:44.861Z,53.71
2023-01-18T08:53:49.695Z,53.77
2023-01-18T08:55:51.233Z,53.62
2023-01-18T08:57:57.633Z,53.96
2023-01-18T08:59:59.236Z,53.62
2023-01-18T09:02:01.019Z,53.54
2023-01-18T09:04:02.632Z,53.98
2023-01-18T09:06:13.090Z,53.39
2023-01-18T09:08:15.446Z,53.56
2023-01-18T09:10:17.319Z,53.62
2023-01-18T09:12:19.343Z,53.63
2023-01-18T09:14:20.920Z,53.58
2023-01-18T09:16:23.055Z,53.64
2023-01-18T09:18:26.139Z,53.90
2023-01-18T09:20:28.310Z,53.60
2023-01-18T09:22:30.325Z,53.89
2023-01-18T09:24:32.129Z,53.99
2023-01-18T09:26:34.047Z,54.03
2023-01-18T09:28:36.321Z,53.93
2023-01-18T09:30:37.872Z,54.05
2023-01-18T09:32:41.742Z,54.04
2023-01-18T09:34:44.066Z,53.74
2023-01-18T09:36:46.749Z,53.96
2023-01-18T09:38:56.134Z,54.01
2023-01-18T09:40:58.851Z,54.08
2023-01-18T09:43:00.752Z,53.89
2023-01-18T09:45:03.869Z,53.99
2023-01-18T09:47:12.655Z,54.68
2023-01-18T09:49:28.929Z,55.33
2023-01-18T09:51:57.358Z,56.83
2023-01-18T09:54:28.902Z,57.10
2023-01-18T09:56:47.517Z,57.72
2023-01-18T09:59:13.344Z,59.06
2023-01-18T10:01:22.347Z,58.50
2023-01-18T10:03:42.105Z,59.18
2023-01-18T10:06:09.900Z,59.73
2023-01-18T10:08:23.237Z,60.55
2023-01-18T10:10:27.047Z,59.77
2023-01-18T10:12:31.631Z,60.12
2023-01-18T10:14:49.153Z,60.32
2023-01-18T10:17:23.944Z,61.77
2023-01-18T10:19:28.901Z,60.81
2023-01-18T10:21:55.030Z,62.69
2023-01-18T10:24:19.274Z,62.42
2023-01-18T10:26:29.570Z,62.30
2023-01-18T10:28:50.608Z,62.51
2023-01-18T10:31:15.160Z,62.76
2023-01-18T10:33:25.268Z,62.38
2023-01-18T10:35:33.484Z,63.08
2023-01-18T10:37:46.848Z,63.68
2023-01-18T10:39:53.485Z,63.51
2023-01-18T10:42:00.826Z,63.22
2023-01-18T10:44:02.513Z,63.08
2023-01-18T10:46:15.063Z,64.34
2023-01-18T10:48:25.881Z,64.16
2023-01-18T10:50:44.080Z,64.48
2023-01-18T10:52:46.088Z,63.54
2023-01-18T10:54:53.266Z,63.65
2023-01-18T10:57:03.811Z,64.18
2023-01-18T10:59:05.736Z,63.46
2023-01-18T11:01:14.228Z,64.13
2023-01-18T11:03:16.193Z,63.71
2023-01-18T11:05:30.196Z,64.38
2023-01-18T11:07:32.107Z,63.69
2023-01-18T11:09:39.744Z,65.11
2023-01-18T11:12:00.221Z,64.30
2023-01-18T11:14:03.728Z,64.12
2023-01-18T11:16:13.797Z,64.78
2023-01-18T11:18:17.631Z,64.26
2023-01-18T11:20:29.615Z,65.14
2023-01-18T11:22:33.796Z,64.32
2023-01-18T11:24:35.681Z,64.38
2023-01-18T11:26:53.331Z,65.55
2023-01-18T11:28:58.025Z,64.37
2023-01-18T11:31:12.960Z,65.85
2023-01-18T11:33:21.625Z,64.67
2023-01-18T11:35:32.980Z,65.92
2023-01-18T11:37:37.306Z,65.07
2023-01-18T11:39:38.950Z,65.22
2023-01-18T11:41:43.083Z,64.97
2023-01-18T11:44:00.273Z,66.06
2023-01-18T11:46:07.610Z,65.51
2023-01-18T11:48:48.387Z,65.70
2023-01-18T11:51:01.093Z,61.39
2023-01-18T11:53:21.641Z,64.14
2023-01-18T11:55:35.922Z,64.20
2023-01-18T11:57:40.290Z,64.15
2023-01-18T11:59:45.627Z,63.84
2023-01-18T12:02:25.152Z,64.24
2023-01-18T12:04:36.243Z,64.72
2023-01-18T12:07:15.054Z,64.84
2023-01-18T12:09:45.503Z,64.90
2023-01-18T12:12:18.401Z,64.94
2023-01-18T12:14:30.096Z,64.63
2023-01-18T12:17:14.356Z,64.40
2023-01-18T12:19:19.179Z,64.57
2023-01-18T12:21:44.170Z,63.67
2023-01-18T12:24:16.221Z,63.81
2023-01-18T12:26:24.265Z,64.03
2023-01-18T12:28:56.106Z,64.57
2023-01-18T12:31:09.897Z,64.04
2023-01-18T12:33:16.212Z,64.47
2023-01-18T12:35:47.936Z,63.98
2023-01-18T12:38:08.199Z,64.61
2023-01-18T12:40:12.785Z,63.81
2023-01-18T12:42:32.095Z,63.78
2023-01-18T12:44:47.203Z,63.59
2023-01-18T12:46:58.732Z,63.88
2023-01-18T12:49:13.749Z,63.40
2023-01-18T12:51:18.618Z,63.56
2023-01-18T12:53:33.723Z,63.20
2023-01-18T12:55:42.322Z,63.33
2023-01-18T12:57:46.540Z,63.34
2023-01-18T12:59:57.841Z,63.79
2023-01-18T13:02:24.660Z,63.84
2023-01-18T13:04:33.489Z,63.39
2023-01-18T13:06:39.642Z,63.24
2023-01-18T13:08:47.466Z,63.40
2023-01-18T13:10:49.628Z,63.14
2023-01-18T13:12:53.369Z,63.36
2023-01-18T13:15:05.399Z,63.78
2023-01-18T13:17:13.640Z,63.75
2023-01-18T13:19:24.822Z,64.00
2023-01-18T13:21:46.737Z,64.02
2023-01-18T13:24:00.423Z,64.09
2023-01-18T13:26:19.869Z,63.89
2023-01-18T13:28:28.827Z,63.80
2023-01-18T13:31:02.257Z,64.24
2023-01-18T13:33:13.807Z,63.90
2023-01-18T13:35:25.843Z,63.89
2023-01-18T13:37:48.548Z,64.35
2023-01-18T13:39:52.700Z,63.94
2023-01-18T13:42:16.032Z,64.29
2023-01-18T13:44:32.625Z,64.03
2023-01-18T13:46:39.183Z,63.52
2023-01-18T13:48:52.732Z,63.61
2023-01-18T13:50:54.449Z,63.60
2023-01-18T13:53:14.247Z,64.01
2023-01-18T13:55:31.315Z,64.29
2023-01-18T13:57:34.829Z,63.72
2023-01-18T13:59:46.542Z,64.00
2023-01-18T14:01:49.692Z,63.82
2023-01-18T14:03:54.172Z,63.50
2023-01-18T14:06:03.368Z,63.40
2023-01-18T14:08:17.799Z,63.48
2023-01-18T14:10:38.000Z,63.75
2023-01-18T14:12:49.289Z,63.37
2023-01-18T14:14:57.536Z,63.35
2023-01-18T14:17:15.328Z,63.00
2023-01-18T14:19:20.219Z,63.14
2023-01-18T14:21:59.715Z,63.11
2023-01-18T14:24:17.428Z,63.44
2023-01-18T14:26:20.295Z,62.78
2023-01-18T14:28:48.367Z,62.87
2023-01-18T14:30:53.773Z,62.99
2023-01-18T14:33:02.626Z,62.68
2023-01-18T14:35:17.059Z,62.67
2023-01-18T14:37:36.143Z,61.65
2023-01-18T14:39:38.284Z,62.11
2023-01-18T14:41:43.586Z,62.40
2023-01-18T14:43:47.251Z,62.33
2023-01-18T14:46:19.659Z,62.87
2023-01-18T14:48:24.195Z,62.86
2023-01-18T14:50:30.285Z,62.83
2023-01-18T14:52:34.828Z,62.62
2023-01-18T14:54:37.045Z,62.58
2023-01-18T14:56:43.032Z,62.72
2023-01-18T14:59:18.550Z,62.30
2023-01-18T15:01:27.570Z,62.19
2023-01-18T15:03:30.744Z,62.62
2023-01-18T15:05:32.314Z,62.66
2023-01-18T15:07:34.422Z,62.14
2023-01-18T15:09:38.344Z,61.98
2023-01-18T15:11:43.138Z,62.25
2023-01-18T15:13:50.656Z,62.42
2023-01-18T15:15:54.372Z,62.12
2023-01-18T15:18:16.531Z,61.64
2023-01-18T15:20:18.431Z,61.69
2023-01-18T15:22:24.199Z,62.09
2023-01-18T15:24:26.236Z,62.16
2023-01-18T15:26:44.970Z,62.18
2023-01-18T15:28:49.466Z,61.96
2023-01-18T15:30:56.186Z,61.84
2023-01-18T15:33:02.313Z,61.70
2023-01-18T15:35:05.801Z,61.68
2023-01-18T15:37:31.044Z,61.07
2023-01-18T15:39:47.478Z,61.29
2023-01-18T15:41:51.439Z,61.35
2023-01-18T15:43:53.209Z,60.77
2023-01-18T15:45:57.346Z,60.54
2023-01-18T15:48:18.643Z,60.06
2023-01-18T15:50:30.946Z,60.43
2023-01-18T15:52:39.187Z,60.39
2023-01-18T15:54:41.964Z,60.10
2023-01-18T15:56:44.542Z,59.96
2023-01-18T15:58:53.357Z,59.99
2023-01-18T16:00:58.169Z,60.12
2023-01-18T16:03:00.270Z,59.99
2023-01-18T16:05:14.323Z,60.01
2023-01-18T16:07:36.409Z,59.70
2023-01-18T16:09:40.832Z,59.57
2023-01-18T16:11:58.277Z,59.70
2023-01-18T16:14:02.547Z,59.97
2023-01-18T16:16:23.253Z,60.03
2023-01-18T16:18:27.624Z,60.05
2023-01-18T16:20:32.525Z,60.10
2023-01-18T16:22:36.446Z,59.81
2023-01-18T16:24:52.332Z,59.97
2023-01-18T16:26:57.317Z,59.91
2023-01-18T16:29:14.438Z,59.60
2023-01-18T16:31:18.025Z,59.91
2023-01-18T16:33:23.864Z,59.89
2023-01-18T16:35:25.633Z,60.04
2023-01-18T16:37:28.247Z,60.43
2023-01-18T16:39:29.964Z,60.13
2023-01-18T16:41:32.329Z,59.91
2023-01-18T16:43:34.806Z,59.77
2023-01-18T16:45:38.420Z,59.25
2023-01-18T16:47:40.446Z,58.73
2023-01-18T16:49:44.096Z,58.24
2023-01-18T16:51:51.365Z,57.69
2023-01-18T16:53:55.639Z,57.40
2023-01-18T16:55:57.286Z,57.09
2023-01-18T16:58:02.223Z,56.74
2023-01-18T17:00:12.261Z,55.84
2023-01-18T17:02:14.247Z,56.44
2023-01-18T17:04:16.539Z,56.53
2023-01-18T17:06:20.494Z,56.24
2023-01-18T17:08:22.203Z,56.04
2023-01-18T17:10:41.859Z,55.74
2023-01-18T17:12:43.525Z,55.90
2023-01-18T17:14:45.213Z,56.08
2023-01-18T17:16:49.240Z,55.88
2023-01-18T17:18:51.261Z,55.85
2023-01-18T17:20:54.509Z,56.10
2023-01-18T17:22:56.336Z,55.77
2023-01-18T17:24:58.093Z,55.68
2023-01-18T17:27:01.223Z,56.03
2023-01-18T17:29:07.547Z,55.70
2023-01-18T17:31:09.144Z,55.94
2023-01-18T17:33:19.521Z,55.55
2023-01-18T17:35:23.244Z,55.97
2023-01-18T17:37:24.997Z,55.99
2023-01-18T17:39:43.670Z,55.69
2023-01-18T17:41:46.682Z,55.95
2023-01-18T17:43:49.312Z,55.66
2023-01-18T17:45:59.867Z,55.63
2023-01-18T17:48:03.390Z,56.04
2023-01-18T17:50:09.036Z,56.05
2023-01-18T17:52:11.887Z,55.71
2023-01-18T17:54:20.719Z,56.05
2023-01-18T17:56:25.980Z,55.99
2023-01-18T17:58:27.716Z,55.95
2023-01-18T18:00:29.439Z,55.91
2023-01-18T18:02:31.400Z,56.34
2023-01-18T18:04:33.193Z,56.00
2023-01-18T18:06:38.167Z,55.81
2023-01-18T18:08:42.373Z,55.92
2023-01-18T18:10:45.844Z,55.91
2023-01-18T18:12:50.358Z,55.82
2023-01-18T18:14:53.371Z,56.22
2023-01-18T18:16:55.331Z,56.11
2023-01-18T18:18:58.169Z,55.89
2023-01-18T18:21:02.369Z,55.92
2023-01-18T18:23:06.735Z,55.87
2023-01-18T18:25:08.760Z,55.83
2023-01-18T18:27:10.291Z,55.87
2023-01-18T18:29:12.693Z,55.87
2023-01-18T18:31:16.123Z,55.79
2023-01-18T18:33:19.324Z,56.00
2023-01-18T18:35:26.061Z,55.79
2023-01-18T18:37:29.376Z,56.04
2023-01-18T18:39:34.503Z,55.85
2023-01-18T18:41:36.000Z,56.03
2023-01-18T18:43:37.660Z,56.05
2023-01-18T18:45:39.577Z,55.93
2023-01-18T18:47:47.756Z,56.08
2023-01-18T18:49:49.459Z,56.01
2023-01-18T18:51:51.133Z,56.02
2023-01-18T18:53:52.766Z,55.98
2023-01-18T18:56:00.376Z,56.06
2023-01-18T18:58:02.467Z,56.10
2023-01-18T19:00:08.584Z,56.15
2023-01-18T19:02:15.181Z,56.22
2023-01-18T19:04:17.849Z,56.27
2023-01-18T19:06:21.295Z,56.19
2023-01-18T19:08:23.782Z,56.50
2023-01-18T19:10:27.825Z,56.24
2023-01-18T19:12:29.591Z,56.21
2023-01-18T19:14:31.509Z,56.04
2023-01-18T19:16:33.217Z,56.34
2023-01-18T19:18:35.386Z,56.30
2023-01-18T19:20:37.560Z,56.07
2023-01-18T19:22:39.169Z,56.11
2023-01-18T19:24:40.883Z,56.28
2023-01-18T19:26:42.540Z,56.15
2023-01-18T19:28:44.439Z,56.06
2023-01-18T19:30:46.016Z,55.97
2023-01-18T19:32:50.513Z,56.10
2023-01-18T19:34:52.255Z,55.90
2023-01-18T19:36:53.871Z,56.14
2023-01-18T19:38:59.959Z,56.04
2023-01-18T19:41:03.079Z,56.13
2023-01-18T19:43:04.509Z,56.02
2023-01-18T19:45:08.223Z,56.14
2023-01-18T19:47:11.412Z,56.01
2023-01-18T19:49:13.066Z,55.94
2023-01-18T19:51:23.166Z,56.05
2023-01-18T19:53:28.642Z,56.22
2023-01-18T19:55:30.660Z,56.10
2023-01-18T19:57:32.234Z,56.08
2023-01-18T19:59:34.226Z,56.10
2023-01-18T20:01:37.408Z,55.99
2023-01-18T20:03:39.846Z,55.93
2023-01-18T20:05:44.552Z,55.50
2023-01-18T20:07:48.447Z,55.88
2023-01-18T20:09:50.474Z,55.79
2023-01-18T20:11:52.298Z,55.68
2023-01-18T20:13:54.030Z,55.72
2023-01-18T20:15:55.889Z,55.63
2023-01-18T20:18:02.193Z,55.84
2023-01-18T20:20:04.913Z,55.83
2023-01-18T20:22:06.733Z,55.57
2023-01-18T20:24:09.364Z,55.51
2023-01-18T20:26:17.945Z,55.26
2023-01-18T20:28:23.654Z,55.30
2023-01-18T20:30:25.478Z,55.45
2023-01-18T20:32:27.205Z,55.54
2023-01-18T20:34:29.028Z,55.67
2023-01-18T20:36:30.893Z,55.08
2023-01-18T20:38:33.352Z,55.12
2023-01-18T20:40:36.270Z,55.24
2023-01-18T20:42:38.056Z,54.93
2023-01-18T20:44:40.534Z,54.84
2023-01-18T20:46:42.518Z,54.75
2023-01-18T20:48:44.129Z,54.67
2023-01-18T20:50:45.802Z,54.76
2023-01-18T20:52:47.598Z,54.77
2023-01-18T20:54:52.066Z,54.73
2023-01-18T20:56:53.672Z,54.95
2023-01-18T20:58:55.229Z,54.90
2023-01-18T21:00:59.429Z,55.00
2023-01-18T21:03:01.380Z,54.46
2023-01-18T21:05:03.451Z,54.64
2023-01-18T21:07:06.342Z,55.03
2023-01-18T21:09:08.501Z,54.49
2023-01-18T21:11:17.699Z,54.69
2023-01-18T21:13:19.281Z,54.67
2023-01-18T21:15:22.332Z,54.90
2023-01-18T21:17:24.097Z,54.60
2023-01-18T21:19:27.946Z,54.21
2023-01-18T21:21:32.218Z,54.43
2023-01-18T21:23:41.051Z,54.92
2023-01-18T21:25:49.873Z,54.59
2023-01-18T21:27:51.709Z,54.51
2023-01-18T21:29:54.227Z,54.91
2023-01-18T21:31:56.461Z,54.72
2023-01-18T21:33:58.164Z,54.97
2023-01-18T21:36:08.284Z,54.81
2023-01-18T21:38:10.067Z,54.38
2023-01-18T21:40:12.182Z,54.81
2023-01-18T21:42:33.135Z,54.78
2023-01-18T21:44:53.969Z,54.89
2023-01-18T21:46:56.546Z,54.06
2023-01-18T21:49:02.818Z,54.27
2023-01-18T21:51:24.201Z,54.45
2023-01-18T21:53:44.701Z,54.25
2023-01-18T21:55:52.293Z,53.96
2023-01-18T21:58:12.272Z,54.08
2023-01-18T22:00:14.581Z,54.73
2023-01-18T22:02:19.246Z,54.13
2023-01-18T22:04:39.574Z,54.35
2023-01-18T22:06:42.736Z,54.68
2023-01-18T22:08:44.318Z,54.50
2023-01-18T22:10:47.489Z,54.76
2023-01-18T22:12:49.332Z,54.30
2023-01-18T22:14:50.953Z,54.21
2023-01-18T22:16:53.306Z,55.04
2023-01-18T22:18:54.840Z,54.20
2023-01-18T22:20:56.542Z,54.39
2023-01-18T22:22:58.127Z,54.31
2023-01-18T22:25:02.073Z,54.75
2023-01-18T22:27:04.660Z,54.46
2023-01-18T22:29:09.717Z,54.25
2023-01-18T22:31:11.791Z,54.48
2023-01-18T22:33:15.314Z,53.97
2023-01-18T22:35:17.053Z,54.28
2023-01-18T22:37:21.845Z,54.58
2023-01-18T22:39:23.633Z,54.54
2023-01-18T22:41:28.016Z,54.40
2023-01-18T22:43:31.509Z,53.67
2023-01-18T22:45:33.098Z,54.48
2023-01-18T22:47:34.686Z,54.06
2023-01-18T22:49:36.340Z,53.60
2023-01-18T22:51:37.920Z,53.68
2023-01-18T22:53:43.965Z,53.92
2023-01-18T22:55:45.490Z,54.23
2023-01-18T22:57:46.990Z,54.12
2023-01-18T22:59:49.033Z,53.97
2023-01-18T23:01:50.850Z,54.10
2023-01-18T23:03:54.847Z,53.41
2023-01-18T23:06:00.560Z,53.02
2023-01-18T23:08:03.925Z,53.27
2023-01-18T23:10:08.331Z,53.50
2023-01-18T23:12:10.324Z,53.44
2023-01-18T23:14:31.188Z,53.38
2023-01-18T23:16:51.606Z,53.63
2023-01-18T23:18:55.778Z,53.44
2023-01-18T23:21:01.219Z,53.77
2023-01-18T23:23:03.761Z,53.76
2023-01-18T23:25:05.808Z,53.45
2023-01-18T23:27:11.861Z,53.73
2023-01-18T23:29:14.016Z,53.26
2023-01-18T23:31:18.645Z,53.19
2023-01-18T23:33:21.595Z,54.00
2023-01-18T23:35:23.091Z,53.58
2023-01-18T23:37:25.782Z,53.23
2023-01-18T23:39:45.706Z,53.29
2023-01-18T23:42:08.346Z,53.45
2023-01-18T23:44:31.850Z,53.29
2023-01-18T23:46:54.565Z,53.35
2023-01-18T23:49:17.778Z,53.80
2023-01-18T23:51:38.229Z,53.85
2023-01-18T23:53:58.980Z,53.04
2023-01-18T23:56:00.597Z,53.29
2023-01-18T23:58:02.692Z,53.49
